createdAt,value
2023-01-31T00:01:27.662Z,2.00
2023-01-31T00:03:56.116Z,1.53
2023-01-31T00:06:25.744Z,1.80
2023-01-31T00:08:54.142Z,2.50
2023-01-31T00:11:23.589Z,1.60
2023-01-31T00:13:52.130Z,1.97
2023-01-31T00:16:22.383Z,1.67
2023-01-31T00:18:50.547Z,2.57
2023-01-31T00:21:20.586Z,1.93
2023-01-31T00:23:49.384Z,1.97
2023-01-31T00:26:18.599Z,2.10
2023-01-31T00:28:47.642Z,2.40
2023-01-31T00:31:17.280Z,2.13
2023-01-31T00:33:47.920Z,1.80
2023-01-31T00:36:20.924Z,1.63
2023-01-31T00:38:49.809Z,1.43
2023-01-31T00:41:17.399Z,1.70
2023-01-31T00:43:44.923Z,1.73
2023-01-31T00:46:12.592Z,1.83
2023-01-31T00:48:40.697Z,1.90
2023-01-31T00:51:09.972Z,1.30
2023-01-31T00:53:38.332Z,0.93
2023-01-31T00:56:08.435Z,0.73
2023-01-31T00:58:37.364Z,1.20
2023-01-31T01:01:09.382Z,1.23
2023-01-31T01:03:38.068Z,1.23
2023-01-31T01:06:06.522Z,2.07
2023-01-31T01:08:37.125Z,1.63
2023-01-31T01:11:09.246Z,1.53
2023-01-31T01:13:37.369Z,2.50
2023-01-31T01:16:07.378Z,2.47
2023-01-31T01:18:35.467Z,1.10
2023-01-31T01:21:08.061Z,1.60
2023-01-31T01:23:37.061Z,1.97
2023-01-31T01:26:05.196Z,1.43
2023-01-31T01:28:34.757Z,1.93
2023-01-31T01:31:07.259Z,1.27
2023-01-31T01:33:35.223Z,2.10
2023-01-31T01:36:03.898Z,1.20
2023-01-31T01:38:32.451Z,1.50
2023-01-31T01:41:01.571Z,1.83
2023-01-31T01:43:43.829Z,1.17
2023-01-31T01:46:16.886Z,1.67
2023-01-31T01:48:47.671Z,1.40
2023-01-31T01:51:19.319Z,1.23
2023-01-31T01:53:50.333Z,1.87
2023-01-31T01:56:24.601Z,1.57
2023-01-31T01:58:57.774Z,1.40
2023-01-31T02:01:29.960Z,2.10
2023-01-31T02:03:57.934Z,2.60
2023-01-31T02:06:26.158Z,1.53
2023-01-31T02:08:54.398Z,2.53
2023-01-31T02:11:25.886Z,1.50
2023-01-31T02:13:58.818Z,1.90
2023-01-31T02:16:26.906Z,2.53
2023-01-31T02:18:55.490Z,1.30
2023-01-31T02:21:54.833Z,1.83
2023-01-31T02:25:19.608Z,1.37
2023-01-31T02:28:06.681Z,1.20
2023-01-31T02:30:48.688Z,1.80
2023-01-31T02:33:24.864Z,1.23
2023-01-31T02:36:05.086Z,0.93
2023-01-31T02:38:46.820Z,1.37
2023-01-31T02:41:20.298Z,1.47
2023-01-31T02:44:12.661Z,1.03
2023-01-31T02:46:52.063Z,2.10
2023-01-31T02:49:35.392Z,1.63
2023-01-31T02:52:18.133Z,1.63
2023-01-31T02:55:14.041Z,1.57
2023-01-31T02:57:44.877Z,1.63
2023-01-31T03:00:14.690Z,1.47
2023-01-31T03:02:42.541Z,1.27
2023-01-31T03:05:15.871Z,1.37
2023-01-31T03:07:45.480Z,1.33
2023-01-31T03:11:01.040Z,1.60
2023-01-31T03:13:48.514Z,1.80
2023-01-31T03:16:41.673Z,1.00
2023-01-31T03:19:17.588Z,1.50
2023-01-31T03:21:50.477Z,1.70
2023-01-31T03:24:19.542Z,2.00
2023-01-31T03:26:48.623Z,1.60
2023-01-31T03:29:17.775Z,1.73
2023-01-31T03:31:50.702Z,1.43
2023-01-31T03:34:19.248Z,1.63
2023-01-31T03:36:54.464Z,1.43
2023-01-31T03:39:32.655Z,1.13
2023-01-31T03:42:07.435Z,1.23
2023-01-31T03:44:44.392Z,1.53
2023-01-31T03:47:18.059Z,2.60
2023-01-31T03:49:48.154Z,2.03
2023-01-31T03:52:23.328Z,1.53
2023-01-31T03:54:57.623Z,1.07
2023-01-31T03:57:29.909Z,2.17
2023-01-31T04:00:00.578Z,1.30
2023-01-31T04:02:34.129Z,1.80
2023-01-31T04:05:07.557Z,1.33
2023-01-31T04:07:37.543Z,0.83
2023-01-31T04:10:07.657Z,0.83
2023-01-31T04:12:37.231Z,1.33
2023-01-31T04:15:05.584Z,1.30
2023-01-31T04:17:33.239Z,2.17
2023-01-31T04:20:01.183Z,1.37
2023-01-31T04:22:29.162Z,1.33
2023-01-31T04:24:58.082Z,1.50
2023-01-31T04:27:25.794Z,1.17
2023-01-31T04:29:53.322Z,1.87
2023-01-31T04:32:20.892Z,1.53
2023-01-31T04:34:48.492Z,1.40
2023-01-31T04:37:16.111Z,1.20
2023-01-31T04:39:43.698Z,1.13
2023-01-31T04:42:12.622Z,1.33
2023-01-31T04:44:40.213Z,2.17
2023-01-31T04:47:07.863Z,0.90
2023-01-31T04:49:35.500Z,2.13
2023-01-31T04:52:03.204Z,1.13
2023-01-31T04:54:30.793Z,1.07
2023-01-31T04:56:58.420Z,0.83
2023-01-31T04:59:27.337Z,1.73
2023-01-31T05:01:55.046Z,2.07
2023-01-31T05:04:23.600Z,1.57
2023-01-31T05:06:51.182Z,1.93
2023-01-31T05:09:18.876Z,1.80
2023-01-31T05:11:46.609Z,1.57
2023-01-31T05:14:14.938Z,1.67
2023-01-31T05:16:47.122Z,2.90
2023-01-31T05:19:15.312Z,3.03
2023-01-31T05:21:55.677Z,2.73
2023-01-31T05:24:23.789Z,2.60
2023-01-31T05:26:53.832Z,3.53
2023-01-31T05:29:21.484Z,2.23
2023-01-31T05:31:52.887Z,1.73
2023-01-31T05:34:20.648Z,2.10
2023-01-31T05:36:48.419Z,1.47
2023-01-31T05:39:16.044Z,1.83
2023-01-31T05:41:43.779Z,1.90
2023-01-31T05:44:14.211Z,1.70
2023-01-31T05:46:42.131Z,1.90
2023-01-31T05:49:11.211Z,2.77
2023-01-31T05:51:39.455Z,2.57
2023-01-31T05:54:07.597Z,1.80
2023-01-31T05:56:35.770Z,2.10
2023-01-31T05:59:03.597Z,1.53
2023-01-31T06:01:32.160Z,2.13
2023-01-31T06:03:59.816Z,3.40
2023-01-31T06:06:28.782Z,4.20
2023-01-31T06:08:56.390Z,1.40
2023-01-31T06:11:25.326Z,1.97
2023-01-31T06:13:54.596Z,1.43
2023-01-31T06:16:22.384Z,1.53
2023-01-31T06:18:50.129Z,1.20
2023-01-31T06:21:17.785Z,1.80
2023-01-31T06:23:47.833Z,1.47
2023-01-31T06:26:15.795Z,1.23
2023-01-31T06:28:45.352Z,2.10
2023-01-31T06:31:14.300Z,2.13
2023-01-31T06:33:47.254Z,2.07
2023-01-31T06:36:18.668Z,1.40
2023-01-31T06:38:51.768Z,1.80
2023-01-31T06:41:19.777Z,6.13
2023-01-31T06:43:47.435Z,1.90
2023-01-31T06:46:15.337Z,2.33
2023-01-31T06:48:43.693Z,1.53
2023-01-31T06:51:11.505Z,1.37
2023-01-31T06:53:39.176Z,2.10
2023-01-31T06:56:09.035Z,2.93
2023-01-31T06:58:36.671Z,2.43
2023-01-31T07:01:08.221Z,1.90
2023-01-31T07:03:36.162Z,1.30
2023-01-31T07:06:03.831Z,1.63
2023-01-31T07:08:34.946Z,2.60
2023-01-31T07:11:03.953Z,1.47
2023-01-31T07:13:33.246Z,2.53
2023-01-31T07:16:01.064Z,2.33
2023-01-31T07:18:28.919Z,2.30
2023-01-31T07:20:56.600Z,2.33
2023-01-31T07:23:24.534Z,1.93
2023-01-31T07:25:52.201Z,1.73
2023-01-31T07:28:20.184Z,2.50
2023-01-31T07:30:49.222Z,4.47
2023-01-31T07:33:18.362Z,3.67
2023-01-31T07:35:46.076Z,3.10
2023-01-31T07:38:13.756Z,2.80
2023-01-31T07:40:41.356Z,2.60
2023-01-31T07:43:09.064Z,3.80
2023-01-31T07:45:36.996Z,2.53
2023-01-31T07:48:07.427Z,1.93
2023-01-31T07:50:35.065Z,3.53
2023-01-31T07:53:02.792Z,2.60
2023-01-31T07:55:30.793Z,2.80
2023-01-31T07:57:58.424Z,3.20
2023-01-31T08:00:44.056Z,2.10
2023-01-31T08:03:34.100Z,3.00
2023-01-31T08:06:03.975Z,3.23
2023-01-31T08:08:32.964Z,2.93
2023-01-31T08:11:00.713Z,2.93
2023-01-31T08:13:28.397Z,3.40
2023-01-31T08:15:55.999Z,4.07
2023-01-31T08:18:25.049Z,2.80
2023-01-31T08:20:52.920Z,3.43
2023-01-31T08:23:21.026Z,3.67
2023-01-31T08:25:48.622Z,3.93
2023-01-31T08:28:16.858Z,3.40
2023-01-31T08:30:52.867Z,3.30
2023-01-31T08:33:25.521Z,2.83
2023-01-31T08:35:53.201Z,3.43
2023-01-31T08:38:20.868Z,3.93
2023-01-31T08:40:48.477Z,4.00
2023-01-31T08:43:16.046Z,4.80
2023-01-31T08:45:43.843Z,3.50
2023-01-31T08:48:11.558Z,5.07
2023-01-31T08:50:40.711Z,5.00
2023-01-31T08:53:08.401Z,4.63
2023-01-31T08:55:37.004Z,4.63
2023-01-31T08:58:04.692Z,4.50
2023-01-31T09:00:32.646Z,4.30
2023-01-31T09:03:01.433Z,5.73
2023-01-31T09:05:30.417Z,4.90
2023-01-31T09:07:59.880Z,4.50
2023-01-31T09:10:27.443Z,4.97
2023-01-31T09:12:55.031Z,5.37
2023-01-31T09:15:23.200Z,4.57
2023-01-31T09:17:51.157Z,4.43
2023-01-31T09:20:19.009Z,4.03
2023-01-31T09:22:46.597Z,6.77
2023-01-31T09:25:15.614Z,5.37
2023-01-31T09:27:43.307Z,5.30
2023-01-31T09:30:12.182Z,6.07
2023-01-31T09:32:41.305Z,4.77
2023-01-31T09:35:09.621Z,6.37
2023-01-31T09:37:37.675Z,7.00
2023-01-31T09:40:06.559Z,6.60
2023-01-31T09:42:39.328Z,5.97
2023-01-31T09:45:13.265Z,6.60
2023-01-31T09:47:45.068Z,4.53
2023-01-31T09:50:21.483Z,4.57
2023-01-31T09:52:49.774Z,5.27
2023-01-31T09:55:19.405Z,4.93
2023-01-31T09:57:57.891Z,5.17
2023-01-31T10:00:33.032Z,4.23
2023-01-31T10:03:20.138Z,3.83
2023-01-31T10:05:52.527Z,5.83
2023-01-31T10:08:34.600Z,4.23
2023-01-31T10:11:04.409Z,6.57
2023-01-31T10:13:37.127Z,5.37
2023-01-31T10:16:14.443Z,4.67
2023-01-31T10:18:44.190Z,5.03
2023-01-31T10:21:16.080Z,4.10
2023-01-31T10:23:49.988Z,4.20
2023-01-31T10:26:23.705Z,2.77
2023-01-31T10:29:01.725Z,3.53
2023-01-31T10:31:35.273Z,3.63
2023-01-31T10:34:07.910Z,4.40
2023-01-31T10:36:39.010Z,4.50
2023-01-31T10:39:15.764Z,5.17
2023-01-31T10:41:54.040Z,5.10
2023-01-31T10:44:28.902Z,6.37
2023-01-31T10:46:59.220Z,3.40
2023-01-31T10:49:30.149Z,5.03
2023-01-31T10:52:13.246Z,4.40
2023-01-31T10:54:55.832Z,4.30
2023-01-31T10:57:23.767Z,3.87
2023-01-31T10:59:55.051Z,5.40
2023-01-31T11:02:25.378Z,5.03
2023-01-31T11:04:54.836Z,5.67
2023-01-31T11:07:23.384Z,6.37
2023-01-31T11:09:54.100Z,4.20
2023-01-31T11:12:23.123Z,5.03
2023-01-31T11:15:12.562Z,7.13
2023-01-31T11:17:43.603Z,5.50
2023-01-31T11:20:23.725Z,3.83
2023-01-31T11:22:52.909Z,5.70
2023-01-31T11:25:23.151Z,4.97
2023-01-31T11:27:55.102Z,5.17
2023-01-31T11:30:29.331Z,4.17
2023-01-31T11:32:57.991Z,4.40
2023-01-31T11:35:29.038Z,5.07
2023-01-31T11:37:59.300Z,5.40
2023-01-31T11:40:33.269Z,6.60
2023-01-31T11:43:02.747Z,7.57
2023-01-31T11:45:34.054Z,6.30
2023-01-31T11:48:08.663Z,6.43
2023-01-31T11:50:39.536Z,6.87
2023-01-31T11:53:18.747Z,6.23
2023-01-31T11:55:49.702Z,6.67
2023-01-31T11:58:21.962Z,5.57
2023-01-31T12:00:56.658Z,5.80
2023-01-31T12:03:25.694Z,5.53
2023-01-31T12:06:02.761Z,5.83
2023-01-31T12:08:33.031Z,5.27
2023-01-31T12:11:04.787Z,6.33
2023-01-31T12:13:33.204Z,6.70
2023-01-31T12:16:05.177Z,6.73
2023-01-31T12:18:48.756Z,7.17
2023-01-31T12:21:17.466Z,5.43
2023-01-31T12:23:54.980Z,7.87
2023-01-31T12:26:31.501Z,6.20
2023-01-31T12:29:14.271Z,6.07
2023-01-31T12:32:01.819Z,7.23
2023-01-31T12:35:00.739Z,7.00
2023-01-31T12:37:42.382Z,7.27
2023-01-31T12:40:25.687Z,6.70
2023-01-31T12:42:59.127Z,6.67
2023-01-31T12:45:46.058Z,5.53
2023-01-31T12:48:31.922Z,6.33
2023-01-31T12:51:07.612Z,7.83
2023-01-31T12:53:52.011Z,5.70
2023-01-31T12:56:34.072Z,5.97
2023-01-31T12:59:16.203Z,7.87
2023-01-31T13:01:49.483Z,7.57
2023-01-31T13:04:31.873Z,6.83
2023-01-31T13:07:03.620Z,7.20
2023-01-31T13:09:34.135Z,7.27
2023-01-31T13:12:07.991Z,8.13
2023-01-31T13:14:40.932Z,8.63
2023-01-31T13:17:14.198Z,9.53
2023-01-31T13:19:50.107Z,7.80
2023-01-31T13:22:21.394Z,9.00
2023-01-31T13:24:54.615Z,7.63
2023-01-31T13:27:28.757Z,8.17
2023-01-31T13:30:01.094Z,9.47
2023-01-31T13:32:34.056Z,9.00
2023-01-31T13:35:07.947Z,10.47
2023-01-31T13:37:40.071Z,8.30
2023-01-31T13:40:19.626Z,8.37
2023-01-31T13:42:47.372Z,9.80
2023-01-31T13:45:23.779Z,7.73
2023-01-31T13:47:56.360Z,6.07
2023-01-31T13:50:34.885Z,7.20
2023-01-31T13:53:05.431Z,8.30
2023-01-31T13:55:37.530Z,7.57
2023-01-31T13:58:07.302Z,7.20
2023-01-31T14:00:41.538Z,7.67
2023-01-31T14:03:11.599Z,7.67
2023-01-31T14:05:55.188Z,7.93
2023-01-31T14:09:02.017Z,7.20
2023-01-31T14:11:43.904Z,6.10
2023-01-31T14:14:19.707Z,6.57
2023-01-31T14:16:48.719Z,6.10
2023-01-31T14:20:14.573Z,6.37
2023-01-31T14:22:43.459Z,6.00
2023-01-31T14:25:14.807Z,6.40
2023-01-31T14:27:45.197Z,5.63
2023-01-31T14:30:24.884Z,5.50
2023-01-31T14:33:06.579Z,6.07
2023-01-31T14:35:47.783Z,5.37
2023-01-31T14:38:25.202Z,6.77
2023-01-31T14:41:03.517Z,5.97
2023-01-31T14:43:52.936Z,6.10
2023-01-31T14:46:36.281Z,6.47
2023-01-31T14:49:18.845Z,5.70
2023-01-31T14:52:06.829Z,4.40
2023-01-31T14:54:51.959Z,3.93
2023-01-31T14:57:22.482Z,5.03
2023-01-31T14:59:57.193Z,4.10
2023-01-31T15:02:41.864Z,5.00
2023-01-31T15:05:14.139Z,3.50
2023-01-31T15:08:02.617Z,6.10
2023-01-31T15:10:57.384Z,5.97
2023-01-31T15:13:38.933Z,4.27
2023-01-31T15:16:09.970Z,5.13
2023-01-31T15:18:38.342Z,6.17
2023-01-31T15:21:08.792Z,6.03
2023-01-31T15:23:41.603Z,5.07
2023-01-31T15:26:11.331Z,5.77
2023-01-31T15:28:44.238Z,5.37
2023-01-31T15:31:18.552Z,3.63
2023-01-31T15:33:51.575Z,5.23
2023-01-31T15:36:27.511Z,5.90
2023-01-31T15:38:57.040Z,5.87
2023-01-31T15:41:28.012Z,6.13
2023-01-31T15:43:57.098Z,5.83
2023-01-31T15:46:28.295Z,6.70
2023-01-31T15:48:56.383Z,4.60
2023-01-31T15:51:24.043Z,6.13
2023-01-31T15:54:02.588Z,6.07
2023-01-31T15:56:31.702Z,5.73
2023-01-31T15:58:59.633Z,5.13
2023-01-31T16:01:31.171Z,6.47
2023-01-31T16:04:00.405Z,5.50
2023-01-31T16:06:31.355Z,3.80
2023-01-31T16:09:01.318Z,4.97
2023-01-31T16:11:33.876Z,4.87
2023-01-31T16:14:04.383Z,5.40
2023-01-31T16:16:35.491Z,5.00
2023-01-31T16:19:03.829Z,7.67
2023-01-31T16:21:35.037Z,6.70
2023-01-31T16:24:04.686Z,7.57
2023-01-31T16:26:38.425Z,5.87
2023-01-31T16:29:10.171Z,5.70
2023-01-31T16:31:47.663Z,5.43
2023-01-31T16:34:25.352Z,6.43
2023-01-31T16:36:57.525Z,4.77
2023-01-31T16:39:33.582Z,3.83
2023-01-31T16:42:03.063Z,3.03
2023-01-31T16:44:35.864Z,3.33
2023-01-31T16:47:04.531Z,2.90
2023-01-31T16:49:35.357Z,3.17
2023-01-31T16:52:17.260Z,2.97
2023-01-31T16:54:49.961Z,2.87
2023-01-31T16:57:38.433Z,4.10
2023-01-31T17:00:08.993Z,4.23
2023-01-31T17:02:41.832Z,3.93
2023-01-31T17:05:17.139Z,7.80
2023-01-31T17:07:48.793Z,5.50
2023-01-31T17:10:22.154Z,5.30
2023-01-31T17:12:52.281Z,3.20
2023-01-31T17:15:21.790Z,3.33
2023-01-31T17:17:49.591Z,4.00
2023-01-31T17:20:19.164Z,3.00
2023-01-31T17:22:56.868Z,3.00
2023-01-31T17:25:34.535Z,3.90
2023-01-31T17:28:06.924Z,2.83
2023-01-31T17:30:35.839Z,2.60
2023-01-31T17:33:03.534Z,2.70
2023-01-31T17:35:35.933Z,3.03
2023-01-31T17:38:03.834Z,2.08
2023-01-31T17:40:31.581Z,2.42
2023-01-31T17:43:01.366Z,2.97
2023-01-31T17:45:32.105Z,3.10
2023-01-31T17:48:00.155Z,3.70
2023-01-31T17:50:29.235Z,2.83
2023-01-31T17:52:59.496Z,3.83
2023-01-31T17:55:27.271Z,3.97
2023-01-31T17:57:55.002Z,4.70
2023-01-31T18:00:22.765Z,4.77
2023-01-31T18:02:53.314Z,4.73
2023-01-31T18:05:33.523Z,3.23
2023-01-31T18:08:06.291Z,3.10
2023-01-31T18:10:34.058Z,3.00
2023-01-31T18:13:02.089Z,2.83
2023-01-31T18:15:29.828Z,2.90
2023-01-31T18:17:58.845Z,3.88
2023-01-31T18:20:26.521Z,3.63
2023-01-31T18:22:54.428Z,3.17
2023-01-31T18:25:22.434Z,3.07
2023-01-31T18:27:50.389Z,2.43
2023-01-31T18:30:18.813Z,2.60
2023-01-31T18:32:46.506Z,2.07
2023-01-31T18:35:15.682Z,3.43
2023-01-31T18:37:43.482Z,2.43
2023-01-31T18:40:12.567Z,2.43
2023-01-31T18:42:40.317Z,1.90
2023-01-31T18:45:10.521Z,2.10
2023-01-31T18:47:40.334Z,2.17
2023-01-31T18:50:09.652Z,3.00
2023-01-31T18:52:42.105Z,3.20
2023-01-31T18:55:09.935Z,2.20
2023-01-31T18:57:37.536Z,2.97
2023-01-31T19:00:05.935Z,2.37
2023-01-31T19:02:33.604Z,2.63
2023-01-31T19:05:02.115Z,2.97
2023-01-31T19:07:32.213Z,2.63
2023-01-31T19:10:02.364Z,2.90
2023-01-31T19:12:30.066Z,2.13
2023-01-31T19:14:57.977Z,3.00
2023-01-31T19:17:25.698Z,2.13
2023-01-31T19:19:53.385Z,2.27
2023-01-31T19:22:21.134Z,2.60
2023-01-31T19:24:48.693Z,2.10
2023-01-31T19:27:17.859Z,2.27
2023-01-31T19:29:45.590Z,1.73
2023-01-31T19:32:13.293Z,2.17
2023-01-31T19:34:41.077Z,3.13
2023-01-31T19:37:09.118Z,2.35
2023-01-31T19:39:36.903Z,2.50
2023-01-31T19:42:05.082Z,1.73
2023-01-31T19:44:34.049Z,2.60
2023-01-31T19:47:01.642Z,1.80
2023-01-31T19:49:29.280Z,2.40
2023-01-31T19:51:56.989Z,2.53
2023-01-31T19:54:27.135Z,2.13
2023-01-31T19:56:55.571Z,2.77
2023-01-31T19:59:23.323Z,1.83
2023-01-31T20:01:52.319Z,2.10
2023-01-31T20:04:20.023Z,3.37
2023-01-31T20:06:48.000Z,2.00
2023-01-31T20:09:19.870Z,2.17
2023-01-31T20:11:47.595Z,2.00
2023-01-31T20:14:15.176Z,2.30
2023-01-31T20:16:42.754Z,2.53
2023-01-31T20:19:11.672Z,2.70
2023-01-31T20:21:39.614Z,2.30
2023-01-31T20:24:07.894Z,2.27
2023-01-31T20:26:35.717Z,1.77
2023-01-31T20:29:03.345Z,2.50
2023-01-31T20:31:31.117Z,2.33
2023-01-31T20:33:58.792Z,2.80
2023-01-31T20:36:27.861Z,1.77
2023-01-31T20:38:55.479Z,2.40
2023-01-31T20:41:23.515Z,2.43
2023-01-31T20:43:51.533Z,2.53
2023-01-31T20:46:19.795Z,3.37
2023-01-31T20:48:47.528Z,2.83
2023-01-31T20:51:15.397Z,2.33
2023-01-31T20:53:44.699Z,1.80
2023-01-31T20:56:12.387Z,1.77
2023-01-31T20:58:41.706Z,2.53
2023-01-31T21:01:10.724Z,2.90
2023-01-31T21:03:38.988Z,2.13
2023-01-31T21:06:07.568Z,3.40
2023-01-31T21:08:36.218Z,2.03
2023-01-31T21:11:07.888Z,2.63
2023-01-31T21:13:36.682Z,2.03
2023-01-31T21:16:07.575Z,1.73
2023-01-31T21:18:36.974Z,2.30
2023-01-31T21:21:07.204Z,2.13
2023-01-31T21:23:36.064Z,2.17
2023-01-31T21:26:07.034Z,2.20
2023-01-31T21:28:34.891Z,2.03
2023-01-31T21:31:05.545Z,2.07
2023-01-31T21:33:33.374Z,1.67
2023-01-31T21:36:08.516Z,2.90
2023-01-31T21:38:36.187Z,1.77
2023-01-31T21:41:21.763Z,2.13
2023-01-31T21:43:50.739Z,1.90
2023-01-31T21:46:18.402Z,4.60
2023-01-31T21:48:46.198Z,4.20
2023-01-31T21:51:15.722Z,3.10
2023-01-31T21:53:44.042Z,2.50
2023-01-31T21:56:13.838Z,2.57
2023-01-31T21:58:42.103Z,2.27
2023-01-31T22:01:13.615Z,2.90
2023-01-31T22:03:43.543Z,2.20
2023-01-31T22:06:13.593Z,2.10
2023-01-31T22:08:41.234Z,2.07
2023-01-31T22:11:10.494Z,1.83
2023-01-31T22:13:38.767Z,2.13
2023-01-31T22:16:08.737Z,1.60
2023-01-31T22:18:38.863Z,3.10
2023-01-31T22:21:08.807Z,2.20
2023-01-31T22:23:38.994Z,2.27
2023-01-31T22:26:07.904Z,1.90
2023-01-31T22:28:36.178Z,2.13
2023-01-31T22:31:04.920Z,2.37
2023-01-31T22:33:34.424Z,1.67
2023-01-31T22:36:04.455Z,2.80
2023-01-31T22:38:32.269Z,3.13
2023-01-31T22:41:01.528Z,3.27
2023-01-31T22:43:29.993Z,2.17
2023-01-31T22:46:00.203Z,2.27
2023-01-31T22:48:28.236Z,1.93
2023-01-31T22:50:57.745Z,1.27
2023-01-31T22:53:28.348Z,2.70
2023-01-31T22:56:00.727Z,1.83
2023-01-31T22:58:28.415Z,2.83
2023-01-31T23:00:56.056Z,2.10
2023-01-31T23:03:23.865Z,2.77
2023-01-31T23:05:51.478Z,2.43
2023-01-31T23:08:19.277Z,2.03
2023-01-31T23:10:48.197Z,1.43
2023-01-31T23:13:15.798Z,2.17
2023-01-31T23:15:43.381Z,2.00
2023-01-31T23:18:11.091Z,2.93
2023-01-31T23:20:38.765Z,3.13
2023-01-31T23:23:06.322Z,2.40
2023-01-31T23:25:33.896Z,2.43
2023-01-31T23:28:03.135Z,1.87
2023-01-31T23:30:31.868Z,2.00
2023-01-31T23:32:59.454Z,2.17
2023-01-31T23:35:27.281Z,2.50
2023-01-31T23:37:54.889Z,2.47
2023-01-31T23:40:22.778Z,2.90
2023-01-31T23:42:50.575Z,2.33
2023-01-31T23:45:19.707Z,1.83
2023-01-31T23:47:47.439Z,2.30
2023-01-31T23:50:15.199Z,2.03
2023-01-31T23:52:42.873Z,3.17
2023-01-31T23:55:11.161Z,2.60
2023-01-31T23:57:38.917Z,2.03
